createdAt,value
2019-03-26T00:01:20.645Z,8.50
2019-03-26T00:03:50.236Z,8.50
2019-03-26T00:06:19.976Z,8.50
2019-03-26T00:08:49.500Z,8.50
2019-03-26T00:11:19.084Z,8.50
2019-03-26T00:13:48.594Z,8.50
2019-03-26T00:16:18.209Z,8.50
2019-03-26T00:18:47.872Z,8.60
2019-03-26T00:21:17.456Z,8.50
2019-03-26T00:23:46.976Z,8.50
2019-03-26T00:26:16.695Z,8.50
2019-03-26T00:28:46.314Z,8.50
2019-03-26T00:31:15.747Z,8.40
2019-03-26T00:33:45.268Z,8.40
2019-03-26T00:36:14.814Z,8.40
2019-03-26T00:38:44.510Z,8.40
2019-03-26T00:41:14.207Z,8.30
2019-03-26T00:43:43.685Z,8.20
2019-03-26T00:46:13.324Z,8.20
2019-03-26T00:48:42.764Z,8.20
2019-03-26T00:51:12.478Z,8.10
2019-03-26T00:53:42.082Z,8.10
2019-03-26T00:56:11.635Z,8.10
2019-03-26T00:58:41.243Z,8.00
2019-03-26T01:01:10.841Z,7.90
2019-03-26T01:03:40.351Z,7.90
2019-03-26T01:06:09.855Z,7.90
2019-03-26T01:08:39.494Z,7.90
2019-03-26T01:11:08.996Z,7.80
2019-03-26T01:13:38.635Z,7.70
2019-03-26T01:16:08.275Z,7.70
2019-03-26T01:18:37.896Z,7.70
2019-03-26T01:21:07.492Z,7.70
2019-03-26T01:23:36.991Z,7.70
2019-03-26T01:26:06.745Z,7.70
2019-03-26T01:28:36.283Z,7.70
2019-03-26T01:31:05.886Z,7.70
2019-03-26T01:33:35.522Z,7.80
2019-03-26T01:36:05.135Z,7.80
2019-03-26T01:38:38.959Z,7.80
2019-03-26T01:41:27.429Z,7.80
2019-03-26T01:43:56.987Z,7.70
2019-03-26T01:46:26.603Z,7.70
2019-03-26T01:48:56.194Z,7.60
2019-03-26T01:51:25.803Z,7.60
2019-03-26T01:53:55.423Z,7.60
2019-03-26T01:56:25.015Z,7.50
2019-03-26T01:58:54.568Z,7.50
2019-03-26T02:01:24.133Z,7.40
2019-03-26T02:03:53.733Z,7.40
2019-03-26T02:06:23.330Z,7.30
2019-03-26T02:08:52.839Z,7.30
2019-03-26T02:11:22.423Z,7.30
2019-03-26T02:13:52.092Z,7.30
2019-03-26T02:16:21.639Z,7.20
2019-03-26T02:18:51.177Z,7.20
2019-03-26T02:21:20.775Z,7.20
2019-03-26T02:23:50.393Z,7.20
2019-03-26T02:26:19.905Z,7.20
2019-03-26T02:28:49.405Z,7.20
2019-03-26T02:31:18.939Z,7.20
2019-03-26T02:33:48.551Z,7.30
2019-03-26T02:36:18.125Z,7.20
2019-03-26T02:38:47.757Z,7.20
2019-03-26T02:41:17.274Z,7.20
2019-03-26T02:43:46.809Z,7.20
2019-03-26T02:46:16.514Z,7.20
2019-03-26T02:48:46.178Z,7.20
2019-03-26T02:51:15.763Z,7.20
2019-03-26T02:53:45.283Z,7.20
2019-03-26T02:56:14.889Z,7.10
2019-03-26T02:58:44.459Z,7.10
2019-03-26T03:01:14.091Z,7.10
2019-03-26T03:03:43.652Z,7.10
2019-03-26T03:06:13.364Z,7.00
2019-03-26T03:08:42.904Z,7.00
2019-03-26T03:11:12.600Z,7.00
2019-03-26T03:13:42.222Z,7.00
2019-03-26T03:16:11.835Z,7.00
2019-03-26T03:18:41.485Z,7.00
2019-03-26T03:21:11.159Z,7.00
2019-03-26T03:23:40.714Z,7.10
2019-03-26T03:26:10.294Z,7.00
2019-03-26T03:28:39.887Z,7.00
2019-03-26T03:31:09.425Z,7.00
2019-03-26T03:33:38.987Z,7.10
2019-03-26T03:36:08.697Z,7.10
2019-03-26T03:38:41.281Z,7.10
2019-03-26T03:41:09.675Z,7.10
2019-03-26T03:43:39.193Z,7.10
2019-03-26T03:46:08.840Z,7.20
2019-03-26T03:48:38.548Z,7.20
2019-03-26T03:51:09.328Z,7.20
2019-03-26T03:53:38.955Z,7.20
2019-03-26T03:56:10.685Z,7.20
2019-03-26T03:58:42.261Z,7.20
2019-03-26T04:01:11.800Z,7.20
2019-03-26T04:03:41.481Z,7.30
2019-03-26T04:06:11.102Z,7.30
2019-03-26T04:08:40.716Z,7.30
2019-03-26T04:11:10.328Z,7.30
2019-03-26T04:13:39.836Z,7.30
2019-03-26T04:16:09.488Z,7.40
2019-03-26T04:18:39.230Z,7.40
2019-03-26T04:21:08.808Z,7.40
2019-03-26T04:23:38.353Z,7.40
2019-03-26T04:26:07.843Z,7.40
2019-03-26T04:28:37.396Z,7.40
2019-03-26T04:31:06.983Z,7.40
2019-03-26T04:33:36.585Z,7.50
2019-03-26T04:36:06.189Z,7.50
2019-03-26T04:38:35.730Z,7.50
2019-03-26T04:41:05.611Z,7.50
2019-03-26T04:43:35.223Z,7.50
2019-03-26T04:46:04.878Z,7.50
2019-03-26T04:48:34.387Z,7.50
2019-03-26T04:51:03.999Z,7.60
2019-03-26T04:53:34.299Z,7.50
2019-03-26T04:56:04.170Z,7.60
2019-03-26T04:58:33.851Z,7.60
2019-03-26T05:01:03.519Z,7.60
2019-03-26T05:03:33.092Z,7.60
2019-03-26T05:06:02.736Z,7.60
2019-03-26T05:08:32.284Z,7.60
2019-03-26T05:11:01.743Z,7.60
2019-03-26T05:13:31.369Z,7.60
2019-03-26T05:16:00.863Z,7.60
2019-03-26T05:18:30.500Z,7.60
2019-03-26T05:21:00.024Z,7.60
2019-03-26T05:23:29.473Z,7.70
2019-03-26T05:25:59.066Z,7.70
2019-03-26T05:28:28.494Z,7.70
2019-03-26T05:30:58.091Z,7.70
2019-03-26T05:33:27.663Z,7.70
2019-03-26T05:35:57.195Z,7.80
2019-03-26T05:38:26.687Z,7.80
2019-03-26T05:40:56.407Z,7.80
2019-03-26T05:43:25.952Z,7.90
2019-03-26T05:45:55.449Z,7.90
2019-03-26T05:48:24.975Z,7.90
2019-03-26T05:50:54.545Z,7.90
2019-03-26T05:53:24.058Z,7.90
2019-03-26T05:55:53.584Z,7.90
2019-03-26T05:58:23.039Z,8.00
2019-03-26T06:00:52.708Z,8.00
2019-03-26T06:03:22.312Z,8.00
2019-03-26T06:05:51.911Z,8.10
2019-03-26T06:08:21.572Z,8.00
2019-03-26T06:10:51.203Z,8.10
2019-03-26T06:13:20.736Z,8.10
2019-03-26T06:15:50.315Z,8.10
2019-03-26T06:18:19.931Z,8.10
2019-03-26T06:20:49.553Z,8.20
2019-03-26T06:23:19.187Z,8.20
2019-03-26T06:25:48.815Z,8.20
2019-03-26T06:28:18.369Z,8.20
2019-03-26T06:30:48.063Z,8.20
2019-03-26T06:33:17.747Z,8.20
2019-03-26T06:35:47.248Z,8.20
2019-03-26T06:38:16.728Z,8.20
2019-03-26T06:40:46.180Z,8.30
2019-03-26T06:43:15.954Z,8.30
2019-03-26T06:45:45.579Z,8.30
2019-03-26T06:48:15.199Z,8.30
2019-03-26T06:50:44.947Z,8.40
2019-03-26T06:53:14.611Z,8.40
2019-03-26T06:55:44.199Z,8.50
2019-03-26T06:58:13.855Z,8.50
2019-03-26T07:00:43.444Z,8.50
2019-03-26T07:03:13.091Z,8.60
2019-03-26T07:05:42.595Z,8.60
2019-03-26T07:08:12.171Z,8.60
2019-03-26T07:10:41.798Z,8.60
2019-03-26T07:13:11.451Z,8.60
2019-03-26T07:15:41.077Z,8.60
2019-03-26T07:18:10.663Z,8.60
2019-03-26T07:20:40.291Z,8.60
2019-03-26T07:23:09.948Z,8.60
2019-03-26T07:25:39.656Z,8.70
2019-03-26T07:28:09.300Z,8.70
2019-03-26T07:30:40.848Z,8.70
2019-03-26T07:33:11.365Z,8.70
2019-03-26T07:35:41.035Z,8.70
2019-03-26T07:38:10.619Z,8.80
2019-03-26T07:40:40.183Z,8.80
2019-03-26T07:43:09.909Z,8.90
2019-03-26T07:45:39.556Z,8.90
2019-03-26T07:48:09.697Z,8.90
2019-03-26T07:50:39.520Z,8.90
2019-03-26T07:53:09.183Z,9.00
2019-03-26T07:55:39.220Z,9.00
2019-03-26T07:58:08.897Z,9.10
2019-03-26T08:00:39.272Z,9.10
2019-03-26T08:03:09.193Z,9.10
2019-03-26T08:05:39.820Z,9.10
2019-03-26T08:08:09.544Z,9.10
2019-03-26T08:10:58.143Z,9.10
2019-03-26T08:13:27.776Z,9.30
2019-03-26T08:15:57.325Z,9.30
2019-03-26T08:18:26.939Z,9.40
2019-03-26T08:20:57.594Z,9.50
2019-03-26T08:23:29.411Z,9.60
2019-03-26T08:26:01.265Z,9.70
2019-03-26T08:28:32.408Z,9.90
2019-03-26T08:31:04.169Z,9.90
2019-03-26T08:33:34.791Z,10.00
2019-03-26T08:36:06.591Z,9.90
2019-03-26T08:38:37.373Z,10.10
2019-03-26T08:41:08.800Z,10.20
2019-03-26T08:43:46.158Z,10.30
2019-03-26T08:46:17.096Z,10.40
2019-03-26T08:48:47.760Z,10.40
2019-03-26T08:51:24.974Z,10.40
2019-03-26T08:53:55.272Z,10.30
2019-03-26T08:56:25.972Z,10.20
2019-03-26T08:58:55.702Z,10.20
2019-03-26T09:01:25.386Z,10.30
2019-03-26T09:03:55.656Z,10.40
2019-03-26T09:06:25.455Z,10.40
2019-03-26T09:08:56.081Z,10.50
2019-03-26T09:11:25.940Z,10.50
2019-03-26T09:14:14.508Z,10.60
2019-03-26T09:16:46.112Z,10.60
2019-03-26T09:19:16.380Z,10.70
2019-03-26T09:21:56.733Z,10.80
2019-03-26T09:24:26.646Z,10.80
2019-03-26T09:26:56.465Z,10.70
2019-03-26T09:29:26.775Z,10.70
2019-03-26T09:31:56.448Z,10.70
2019-03-26T09:34:26.278Z,10.70
2019-03-26T09:36:56.130Z,10.60
2019-03-26T09:39:25.780Z,10.60
2019-03-26T09:41:56.021Z,10.60
2019-03-26T09:44:27.620Z,10.70
2019-03-26T09:46:57.231Z,10.80
2019-03-26T09:49:27.012Z,10.80
2019-03-26T09:51:56.811Z,10.80
2019-03-26T09:54:26.475Z,10.80
2019-03-26T09:57:24.003Z,10.90
2019-03-26T09:59:53.809Z,10.80
2019-03-26T10:02:25.175Z,10.90
2019-03-26T10:05:11.759Z,11.00
2019-03-26T10:07:49.030Z,11.00
2019-03-26T10:10:15.322Z,11.00
2019-03-26T10:12:44.997Z,10.90
2019-03-26T10:15:14.755Z,10.90
2019-03-26T10:17:44.534Z,11.10
2019-03-26T10:20:14.507Z,11.10
2019-03-26T10:22:44.100Z,11.20
2019-03-26T10:25:40.612Z,11.30
2019-03-26T10:27:58.309Z,11.30
2019-03-26T10:30:38.808Z,11.30
2019-03-26T10:33:09.058Z,11.20
2019-03-26T10:35:38.896Z,11.30
2019-03-26T10:38:09.285Z,11.40
2019-03-26T10:40:40.980Z,11.30
2019-03-26T10:43:10.994Z,11.40
2019-03-26T10:45:41.419Z,11.40
2019-03-26T10:48:11.075Z,11.50
2019-03-26T10:50:40.727Z,11.50
2019-03-26T10:53:11.105Z,11.60
2019-03-26T10:55:49.135Z,11.60
2019-03-26T11:14:25.996Z,11.70
2019-03-26T11:16:55.819Z,11.70
2019-03-26T11:19:25.484Z,11.70
2019-03-26T11:21:55.171Z,11.90
2019-03-26T11:24:25.135Z,12.10
2019-03-26T11:26:54.899Z,12.20
2019-03-26T11:29:24.564Z,12.40
2019-03-26T11:31:54.220Z,12.40
2019-03-26T11:34:23.738Z,12.40
2019-03-26T11:36:53.456Z,12.50
2019-03-26T11:39:32.598Z,12.60
2019-03-26T11:41:54.754Z,12.70
2019-03-26T11:44:24.337Z,12.70
2019-03-26T11:46:54.035Z,12.70
2019-03-26T11:49:23.912Z,12.60
2019-03-26T11:51:54.010Z,12.70
2019-03-26T11:54:24.401Z,12.70
2019-03-26T11:56:54.116Z,12.80
2019-03-26T11:59:23.836Z,12.90
2019-03-26T12:01:56.729Z,12.90
2019-03-26T12:04:29.968Z,13.00
2019-03-26T12:07:02.938Z,13.10
2019-03-26T12:09:45.230Z,13.10
2019-03-26T12:12:04.411Z,13.20
2019-03-26T12:14:34.244Z,13.20
2019-03-26T12:17:04.093Z,13.30
2019-03-26T12:19:34.095Z,13.50
2019-03-26T12:22:04.472Z,13.70
2019-03-26T12:24:34.206Z,13.60
2019-03-26T12:27:04.299Z,13.60
2019-03-26T12:29:34.141Z,13.80
2019-03-26T12:32:33.965Z,14.00
2019-03-26T12:35:04.023Z,14.20
2019-03-26T12:37:33.784Z,14.50
2019-03-26T12:40:03.996Z,14.50
2019-03-26T12:42:33.927Z,14.60
2019-03-26T12:45:06.836Z,14.70
2019-03-26T12:47:36.412Z,14.80
2019-03-26T12:50:06.910Z,15.00
2019-03-26T12:52:37.610Z,15.10
2019-03-26T12:55:07.628Z,15.10
2019-03-26T12:57:37.907Z,15.00
2019-03-26T13:00:09.775Z,15.00
2019-03-26T13:02:40.957Z,15.00
2019-03-26T13:05:11.272Z,15.10
2019-03-26T13:07:51.801Z,15.10
2019-03-26T13:10:22.158Z,15.10
2019-03-26T13:12:52.183Z,15.10
2019-03-26T13:15:22.124Z,15.10
2019-03-26T13:17:54.780Z,15.10
2019-03-26T13:20:24.627Z,15.00
2019-03-26T13:22:54.489Z,14.70
2019-03-26T13:25:39.429Z,14.90
2019-03-26T13:28:11.951Z,15.10
2019-03-26T13:30:41.746Z,15.20
2019-03-26T13:33:11.473Z,15.30
2019-03-26T13:35:41.720Z,15.30
2019-03-26T13:38:11.651Z,15.30
2019-03-26T13:40:41.532Z,15.10
2019-03-26T13:43:11.708Z,15.20
2019-03-26T13:45:44.362Z,15.20
2019-03-26T13:48:13.993Z,15.40
2019-03-26T13:50:58.213Z,15.50
2019-03-26T13:53:28.133Z,15.60
2019-03-26T19:17:19.013Z,9.50
2019-03-26T19:19:48.657Z,9.50
2019-03-26T19:22:18.348Z,9.50
2019-03-26T19:24:47.980Z,9.50
2019-03-26T19:27:17.547Z,9.50
2019-03-26T19:29:47.134Z,9.50
2019-03-26T19:32:16.748Z,9.50
2019-03-26T19:34:46.340Z,9.40
2019-03-26T19:37:15.992Z,9.40
2019-03-26T19:39:45.610Z,9.40
2019-03-26T19:42:15.152Z,9.50
2019-03-26T19:44:44.967Z,9.40
2019-03-26T19:47:14.474Z,9.40
2019-03-26T19:49:44.117Z,9.40
2019-03-26T19:52:13.802Z,9.40
2019-03-26T19:54:43.448Z,9.40
2019-03-26T19:57:13.057Z,9.40
2019-03-26T19:59:42.731Z,9.40
2019-03-26T20:02:12.367Z,9.40
2019-03-26T20:04:41.979Z,9.40
2019-03-26T20:07:11.660Z,9.40
2019-03-26T20:09:41.316Z,9.30
2019-03-26T20:12:11.132Z,9.40
2019-03-26T20:14:40.651Z,9.40
2019-03-26T20:17:10.227Z,9.40
2019-03-26T20:19:39.830Z,9.40
2019-03-26T20:22:09.484Z,9.40
2019-03-26T20:24:39.120Z,9.30
2019-03-26T20:27:08.713Z,9.40
2019-03-26T20:29:38.432Z,9.30
2019-03-26T20:32:08.182Z,9.30
2019-03-26T20:34:37.823Z,9.30
2019-03-26T20:37:07.412Z,9.30
2019-03-26T20:39:36.984Z,9.30
2019-03-26T20:42:06.506Z,9.30
2019-03-26T20:44:36.088Z,9.30
2019-03-26T20:47:05.725Z,9.30
2019-03-26T20:49:35.310Z,9.30
2019-03-26T20:52:04.938Z,9.30
2019-03-26T20:54:34.642Z,9.30
2019-03-26T20:57:04.221Z,9.30
2019-03-26T20:59:34.444Z,9.30
2019-03-26T21:02:04.019Z,9.30
2019-03-26T21:04:33.635Z,9.30
2019-03-26T21:07:03.164Z,9.30
2019-03-26T21:09:33.191Z,9.30
2019-03-26T21:12:04.426Z,9.30
2019-03-26T21:14:34.084Z,9.30
2019-03-26T21:17:03.731Z,9.30
2019-03-26T21:19:39.280Z,9.30
2019-03-26T21:22:12.723Z,9.30
2019-03-26T21:24:42.783Z,9.30
2019-03-26T21:27:12.404Z,9.30
2019-03-26T21:29:42.064Z,9.30
2019-03-26T21:32:11.903Z,9.20
2019-03-26T21:34:41.658Z,9.30
2019-03-26T21:37:11.547Z,9.20
2019-03-26T21:39:41.167Z,9.20
2019-03-26T21:42:10.875Z,9.20
2019-03-26T21:44:40.391Z,9.20
2019-03-26T21:47:10.090Z,9.20
2019-03-26T21:49:39.760Z,9.20
2019-03-26T21:52:09.745Z,9.20
2019-03-26T21:54:39.333Z,9.20
2019-03-26T21:57:09.012Z,9.20
2019-03-26T21:59:56.868Z,9.20
2019-03-26T22:02:26.610Z,9.20
2019-03-26T22:04:58.115Z,9.20
2019-03-26T22:07:27.813Z,9.20
2019-03-26T22:09:57.531Z,9.20
2019-03-26T22:12:27.152Z,9.20
2019-03-26T22:14:56.781Z,9.20
2019-03-26T22:17:26.428Z,9.20
2019-03-26T22:19:56.179Z,9.10
2019-03-26T22:22:25.839Z,9.20
2019-03-26T22:24:55.483Z,9.20
2019-03-26T22:27:24.998Z,9.20
2019-03-26T22:29:54.563Z,9.20
2019-03-26T22:32:24.099Z,9.20
2019-03-26T22:34:53.587Z,9.10
2019-03-26T22:37:23.128Z,9.20
2019-03-26T22:39:52.747Z,9.20
2019-03-26T22:42:22.349Z,9.10
2019-03-26T22:44:53.831Z,9.20
2019-03-26T22:47:23.419Z,9.10
2019-03-26T22:49:52.972Z,9.10
2019-03-26T22:52:22.587Z,9.10
2019-03-26T22:54:52.259Z,9.10
2019-03-26T22:57:21.807Z,9.10
2019-03-26T22:59:51.407Z,9.10
2019-03-26T23:02:21.219Z,9.10
2019-03-26T23:04:50.928Z,9.00
2019-03-26T23:07:20.531Z,9.00
2019-03-26T23:09:50.197Z,9.10
2019-03-26T23:12:19.783Z,9.10
2019-03-26T23:14:51.195Z,9.10
2019-03-26T23:17:20.743Z,9.10
2019-03-26T23:19:50.466Z,9.10
2019-03-26T23:22:20.082Z,9.00
2019-03-26T23:25:13.834Z,9.10
2019-03-26T23:27:43.446Z,9.00
2019-03-26T23:30:16.733Z,9.00
2019-03-26T23:32:46.374Z,9.00
2019-03-26T23:35:16.187Z,9.00
2019-03-26T23:37:45.866Z,9.00
2019-03-26T23:40:15.828Z,9.00
2019-03-26T23:42:45.420Z,9.00
2019-03-26T23:45:15.204Z,9.00
2019-03-26T23:47:44.811Z,8.90
2019-03-26T23:50:14.818Z,9.00
2019-03-26T23:52:44.474Z,8.90
2019-03-26T23:55:14.179Z,8.90
2019-03-26T23:57:43.788Z,8.90
